sensor_id;sensor_type;location;lat;lon;timestamp;P1;durP1;ratioP1;P2;durP2;ratioP2
72095;SDS011;59968;51.084;16.748;2023-09-19T04:03:09;5.30;;;2.00;;
72095;SDS011;59968;51.084;16.748;2023-09-19T04:05:46;4.70;;;2.00;;
72095;SDS011;59968;51.084;16.748;2023-09-19T04:08:16;6.60;;;1.90;;
72095;SDS011;59968;51.084;16.748;2023-09-19T04:10:43;6.30;;;2.20;;
72095;SDS011;59968;51.084;16.748;2023-09-19T04:13:11;3.50;;;1.80;;
72095;SDS011;59968;51.084;16.748;2023-09-19T04:15:38;4.20;;;1.90;;
72095;SDS011;59968;51.084;16.748;2023-09-19T04:18:07;4.20;;;1.80;;
72095;SDS011;59968;51.084;16.748;2023-09-19T04:20:34;4.10;;;1.50;;
72095;SDS011;59968;51.084;16.748;2023-09-19T04:23:02;3.20;;;1.80;;
72095;SDS011;59968;51.084;16.748;2023-09-19T04:25:31;4.40;;;2.00;;
72095;SDS011;59968;51.084;16.748;2023-09-19T04:27:58;4.60;;;1.70;;
72095;SDS011;59968;51.084;16.748;2023-09-19T04:30:25;3.90;;;1.70;;
72095;SDS011;59968;51.084;16.748;2023-09-19T04:32:53;6.30;;;2.00;;
72095;SDS011;59968;51.084;16.748;2023-09-19T04:35:20;5.40;;;1.50;;
72095;SDS011;59968;51.084;16.748;2023-09-19T04:37:48;5.00;;;2.00;;
72095;SDS011;59968;51.084;16.748;2023-09-19T04:40:18;4.50;;;1.80;;
72095;SDS011;59968;51.084;16.748;2023-09-19T04:42:53;3.60;;;2.00;;
72095;SDS011;59968;51.084;16.748;2023-09-19T04:45:24;4.00;;;2.00;;
72095;SDS011;59968;51.084;16.748;2023-09-19T04:47:53;5.60;;;2.10;;
72095;SDS011;59968;51.084;16.748;2023-09-19T04:50:21;5.10;;;1.90;;
72095;SDS011;59968;51.084;16.748;2023-09-19T04:52:49;4.30;;;1.80;;
72095;SDS011;59968;51.084;16.748;2023-09-19T04:55:17;5.70;;;2.10;;
72095;SDS011;59968;51.084;16.748;2023-09-19T04:57:46;6.00;;;1.90;;
72095;SDS011;59968;51.084;16.748;2023-09-19T05:00:15;5.00;;;2.00;;
72095;SDS011;59968;51.084;16.748;2023-09-19T05:06:55;6.30;;;1.90;;
72095;SDS011;59968;51.084;16.748;2023-09-19T05:09:23;4.90;;;2.10;;
72095;SDS011;59968;51.084;16.748;2023-09-19T05:11:50;6.10;;;2.10;;
72095;SDS011;59968;51.084;16.748;2023-09-19T05:14:18;9.40;;;2.20;;
72095;SDS011;59968;51.084;16.748;2023-09-19T05:16:45;7.70;;;2.00;;
72095;SDS011;59968;51.084;16.748;2023-09-19T05:19:13;4.50;;;2.00;;
72095;SDS011;59968;51.084;16.748;2023-09-19T05:21:41;5.80;;;2.30;;
72095;SDS011;59968;51.084;16.748;2023-09-19T05:24:08;6.10;;;1.90;;
72095;SDS011;59968;51.084;16.748;2023-09-19T05:26:37;5.70;;;2.10;;
72095;SDS011;59968;51.084;16.748;2023-09-19T05:29:04;5.50;;;2.20;;
72095;SDS011;59968;51.084;16.748;2023-09-19T05:31:31;7.50;;;2.40;;
72095;SDS011;59968;51.084;16.748;2023-09-19T05:33:58;5.30;;;2.50;;
72095;SDS011;59968;51.084;16.748;2023-09-19T05:36:27;7.80;;;2.30;;
72095;SDS011;59968;51.084;16.748;2023-09-19T05:38:56;6.60;;;2.40;;
72095;SDS011;59968;51.084;16.748;2023-09-19T05:41:25;5.50;;;2.20;;
72095;SDS011;59968;51.084;16.748;2023-09-19T05:43:52;5.90;;;2.50;;
72095;SDS011;59968;51.084;16.748;2023-09-19T05:46:19;5.60;;;2.70;;
72095;SDS011;59968;51.084;16.748;2023-09-19T05:48:47;6.80;;;2.40;;
72095;SDS011;59968;51.084;16.748;2023-09-19T05:51:14;7.20;;;2.40;;
72095;SDS011;59968;51.084;16.748;2023-09-19T05:53:41;5.70;;;2.70;;
72095;SDS011;59968;51.084;16.748;2023-09-19T05:56:10;6.70;;;2.80;;
72095;SDS011;59968;51.084;16.748;2023-09-19T05:58:37;7.50;;;2.60;;
72095;SDS011;59968;51.084;16.748;2023-09-19T06:01:05;6.20;;;2.40;;
72095;SDS011;59968;51.084;16.748;2023-09-19T06:03:34;6.90;;;2.70;;
72095;SDS011;59968;51.084;16.748;2023-09-19T06:06:02;6.10;;;3.00;;
72095;SDS011;59968;51.084;16.748;2023-09-19T06:08:29;8.50;;;2.80;;
72095;SDS011;59968;51.084;16.748;2023-09-19T06:10:57;6.40;;;2.60;;
72095;SDS011;59968;51.084;16.748;2023-09-19T06:13:25;5.40;;;2.40;;
72095;SDS011;59968;51.084;16.748;2023-09-19T06:15:55;7.30;;;2.70;;
72095;SDS011;59968;51.084;16.748;2023-09-19T06:18:23;9.30;;;2.50;;
72095;SDS011;59968;51.084;16.748;2023-09-19T06:20:52;6.80;;;2.50;;
72095;SDS011;59968;51.084;16.748;2023-09-19T06:23:20;5.10;;;2.40;;
72095;SDS011;59968;51.084;16.748;2023-09-19T06:25:49;4.50;;;2.40;;
72095;SDS011;59968;51.084;16.748;2023-09-19T06:28:16;5.80;;;2.40;;
72095;SDS011;59968;51.084;16.748;2023-09-19T06:30:50;4.80;;;2.40;;
72095;SDS011;59968;51.084;16.748;2023-09-19T06:33:17;6.20;;;2.60;;
72095;SDS011;59968;51.084;16.748;2023-09-19T06:35:48;4.40;;;2.30;;
72095;SDS011;59968;51.084;16.748;2023-09-19T06:38:15;4.20;;;2.30;;
72095;SDS011;59968;51.084;16.748;2023-09-19T06:40:42;5.90;;;2.40;;
72095;SDS011;59968;51.084;16.748;2023-09-19T06:43:10;4.80;;;2.20;;
72095;SDS011;59968;51.084;16.748;2023-09-19T06:45:38;3.50;;;2.00;;
72095;SDS011;59968;51.084;16.748;2023-09-19T06:48:05;4.10;;;1.80;;
72095;SDS011;59968;51.084;16.748;2023-09-19T06:50:33;5.00;;;2.20;;
72095;SDS011;59968;51.084;16.748;2023-09-19T06:53:01;4.10;;;2.10;;
72095;SDS011;59968;51.084;16.748;2023-09-19T06:55:28;5.70;;;2.10;;
72095;SDS011;59968;51.084;16.748;2023-09-19T06:57:59;4.00;;;1.70;;
72095;SDS011;59968;51.084;16.748;2023-09-19T07:00:27;3.40;;;1.90;;
72095;SDS011;59968;51.084;16.748;2023-09-19T07:02:58;3.20;;;1.70;;
72095;SDS011;59968;51.084;16.748;2023-09-19T07:05:31;3.20;;;1.80;;
72095;SDS011;59968;51.084;16.748;2023-09-19T07:07:59;5.00;;;2.00;;
72095;SDS011;59968;51.084;16.748;2023-09-19T07:10:30;2.60;;;1.70;;
72095;SDS011;59968;51.084;16.748;2023-09-19T07:13:02;3.40;;;2.10;;
72095;SDS011;59968;51.084;16.748;2023-09-19T07:15:32;4.10;;;2.30;;
72095;SDS011;59968;51.084;16.748;2023-09-19T07:18:06;4.20;;;1.60;;
72095;SDS011;59968;51.084;16.748;2023-09-19T07:20:37;2.60;;;1.80;;
72095;SDS011;59968;51.084;16.748;2023-09-19T07:23:05;2.30;;;1.70;;
72095;SDS011;59968;51.084;16.748;2023-09-19T07:25:33;2.60;;;1.60;;
72095;SDS011;59968;51.084;16.748;2023-09-19T07:28:02;3.10;;;1.90;;
72095;SDS011;59968;51.084;16.748;2023-09-19T07:30:30;2.90;;;2.00;;
72095;SDS011;59968;51.084;16.748;2023-09-19T07:32:57;3.30;;;1.90;;
72095;SDS011;59968;51.084;16.748;2023-09-19T07:35:25;2.80;;;1.90;;
72095;SDS011;59968;51.084;16.748;2023-09-19T07:37:52;3.30;;;1.70;;
72095;SDS011;59968;51.084;16.748;2023-09-19T07:40:19;3.40;;;1.70;;
72095;SDS011;59968;51.084;16.748;2023-09-19T07:42:51;2.10;;;1.40;;
72095;SDS011;59968;51.084;16.748;2023-09-19T07:45:19;3.60;;;1.50;;
72095;SDS011;59968;51.084;16.748;2023-09-19T07:47:46;2.60;;;1.70;;
72095;SDS011;59968;51.084;16.748;2023-09-19T07:50:18;3.40;;;2.00;;
72095;SDS011;59968;51.084;16.748;2023-09-19T07:52:48;4.00;;;1.70;;
72095;SDS011;59968;51.084;16.748;2023-09-19T07:55:19;2.40;;;1.40;;
72095;SDS011;59968;51.084;16.748;2023-09-19T07:57:51;3.60;;;1.90;;
72095;SDS011;59968;51.084;16.748;2023-09-19T08:00:19;2.90;;;1.90;;
72095;SDS011;59968;51.084;16.748;2023-09-19T08:02:46;3.50;;;1.60;;
72095;SDS011;59968;51.084;16.748;2023-09-19T08:05:27;2.20;;;1.50;;
72095;SDS011;59968;51.084;16.748;2023-09-19T08:07:55;2.40;;;1.80;;
72095;SDS011;59968;51.084;16.748;2023-09-19T08:10:23;3.10;;;1.90;;
72095;SDS011;59968;51.084;16.748;2023-09-19T08:12:54;4.00;;;2.10;;
72095;SDS011;59968;51.084;16.748;2023-09-19T08:15:24;3.80;;;1.70;;
72095;SDS011;59968;51.084;16.748;2023-09-19T08:17:51;3.10;;;1.70;;
72095;SDS011;59968;51.084;16.748;2023-09-19T08:20:19;3.70;;;1.90;;
72095;SDS011;59968;51.084;16.748;2023-09-19T08:22:50;3.40;;;1.90;;
72095;SDS011;59968;51.084;16.748;2023-09-19T08:25:24;3.20;;;2.00;;
72095;SDS011;59968;51.084;16.748;2023-09-19T08:27:56;2.70;;;1.60;;
72095;SDS011;59968;51.084;16.748;2023-09-19T08:30:24;2.20;;;1.70;;
72095;SDS011;59968;51.084;16.748;2023-09-19T08:32:57;3.10;;;2.00;;
72095;SDS011;59968;51.084;16.748;2023-09-19T08:35:25;4.20;;;1.80;;
72095;SDS011;59968;51.084;16.748;2023-09-19T08:37:55;5.70;;;2.20;;
72095;SDS011;59968;51.084;16.748;2023-09-19T08:40:23;3.60;;;1.60;;
72095;SDS011;59968;51.084;16.748;2023-09-19T08:42:52;2.70;;;1.60;;
72095;SDS011;59968;51.084;16.748;2023-09-19T08:45:21;3.40;;;2.00;;
72095;SDS011;59968;51.084;16.748;2023-09-19T08:54:06;5.20;;;2.10;;
72095;SDS011;59968;51.084;16.748;2023-09-19T08:56:18;4.30;;;1.90;;
72095;SDS011;59968;51.084;16.748;2023-09-19T08:58:50;3.00;;;2.00;;
72095;SDS011;59968;51.084;16.748;2023-09-19T09:01:24;2.40;;;1.70;;
72095;SDS011;59968;51.084;16.748;2023-09-19T09:03:55;5.00;;;2.30;;
72095;SDS011;59968;51.084;16.748;2023-09-19T09:06:24;3.50;;;1.80;;
72095;SDS011;59968;51.084;16.748;2023-09-19T09:08:52;3.40;;;1.60;;
72095;SDS011;59968;51.084;16.748;2023-09-19T09:11:20;3.40;;;1.70;;
72095;SDS011;59968;51.084;16.748;2023-09-19T09:13:52;3.10;;;1.90;;
72095;SDS011;59968;51.084;16.748;2023-09-19T09:16:19;3.40;;;2.00;;
72095;SDS011;59968;51.084;16.748;2023-09-19T09:18:47;2.30;;;1.30;;
72095;SDS011;59968;51.084;16.748;2023-09-19T09:21:21;2.90;;;1.60;;
72095;SDS011;59968;51.084;16.748;2023-09-19T09:23:51;3.70;;;1.80;;
72095;SDS011;59968;51.084;16.748;2023-09-19T09:29:07;3.90;;;1.90;;
72095;SDS011;59968;51.084;16.748;2023-09-19T09:31:34;2.90;;;1.50;;
72095;SDS011;59968;51.084;16.748;2023-09-19T09:34:01;4.80;;;1.70;;
72095;SDS011;59968;51.084;16.748;2023-09-19T09:36:34;3.80;;;1.60;;
72095;SDS011;59968;51.084;16.748;2023-09-19T09:39:03;2.00;;;1.50;;
72095;SDS011;59968;51.084;16.748;2023-09-19T09:41:44;2.90;;;1.40;;
72095;SDS011;59968;51.084;16.748;2023-09-19T09:44:19;3.00;;;1.70;;
72095;SDS011;59968;51.084;16.748;2023-09-19T09:46:46;2.30;;;1.80;;
72095;SDS011;59968;51.084;16.748;2023-09-19T09:49:25;2.90;;;1.60;;
72095;SDS011;59968;51.084;16.748;2023-09-19T09:52:01;2.50;;;2.00;;
72095;SDS011;59968;51.084;16.748;2023-09-19T09:54:35;2.80;;;2.00;;
72095;SDS011;59968;51.084;16.748;2023-09-19T09:57:06;5.50;;;2.10;;
72095;SDS011;59968;51.084;16.748;2023-09-19T10:02:19;3.80;;;1.80;;
72095;SDS011;59968;51.084;16.748;2023-09-19T10:04:52;3.20;;;1.60;;
72095;SDS011;59968;51.084;16.748;2023-09-19T10:07:29;2.20;;;1.70;;
72095;SDS011;59968;51.084;16.748;2023-09-19T10:10:11;2.40;;;1.60;;
72095;SDS011;59968;51.084;16.748;2023-09-19T10:12:48;3.60;;;1.80;;
72095;SDS011;59968;51.084;16.748;2023-09-19T10:15:17;2.50;;;1.40;;
72095;SDS011;59968;51.084;16.748;2023-09-19T10:17:49;2.60;;;1.50;;
72095;SDS011;59968;51.084;16.748;2023-09-19T10:20:21;2.60;;;1.90;;
72095;SDS011;59968;51.084;16.748;2023-09-19T10:22:51;2.00;;;1.50;;
72095;SDS011;59968;51.084;16.748;2023-09-19T10:25:30;5.70;;;1.60;;
72095;SDS011;59968;51.084;16.748;2023-09-19T10:28:01;1.90;;;1.40;;
72095;SDS011;59968;51.084;16.748;2023-09-19T10:30:31;2.80;;;2.00;;
72095;SDS011;59968;51.084;16.748;2023-09-19T10:33:02;2.20;;;1.60;;
72095;SDS011;59968;51.084;16.748;2023-09-19T10:35:32;3.20;;;1.30;;
72095;SDS011;59968;51.084;16.748;2023-09-19T10:38:01;3.90;;;1.90;;
72095;SDS011;59968;51.084;16.748;2023-09-19T10:40:29;2.40;;;1.70;;
72095;SDS011;59968;51.084;16.748;2023-09-19T10:43:03;3.00;;;2.00;;
72095;SDS011;59968;51.084;16.748;2023-09-19T10:45:35;3.70;;;2.50;;
72095;SDS011;59968;51.084;16.748;2023-09-19T10:48:05;3.80;;;2.30;;
72095;SDS011;59968;51.084;16.748;2023-09-19T10:53:55;5.60;;;2.20;;
72095;SDS011;59968;51.084;16.748;2023-09-19T10:56:29;2.40;;;1.40;;
72095;SDS011;59968;51.084;16.748;2023-09-19T10:59:11;3.50;;;1.70;;
72095;SDS011;59968;51.084;16.748;2023-09-19T11:01:56;2.80;;;1.50;;
72095;SDS011;59968;51.084;16.748;2023-09-19T11:04:27;1.90;;;1.50;;
72095;SDS011;59968;51.084;16.748;2023-09-19T11:07:03;2.80;;;1.40;;
72095;SDS011;59968;51.084;16.748;2023-09-19T11:14:58;2.00;;;1.10;;
72095;SDS011;59968;51.084;16.748;2023-09-19T11:17:35;2.10;;;1.30;;
72095;SDS011;59968;51.084;16.748;2023-09-19T11:30:46;3.00;;;1.50;;
72095;SDS011;59968;51.084;16.748;2023-09-19T11:33:22;3.90;;;1.50;;
72095;SDS011;59968;51.084;16.748;2023-09-19T11:44:38;1.90;;;1.20;;
72095;SDS011;59968;51.084;16.748;2023-09-19T11:46:53;2.80;;;1.10;;
72095;SDS011;59968;51.084;16.748;2023-09-19T11:49:26;2.00;;;1.20;;
72095;SDS011;59968;51.084;16.748;2023-09-19T11:51:56;1.70;;;1.20;;
72095;SDS011;59968;51.084;16.748;2023-09-19T11:54:26;1.40;;;1.00;;
72095;SDS011;59968;51.084;16.748;2023-09-19T11:56:59;1.70;;;1.30;;
72095;SDS011;59968;51.084;16.748;2023-09-19T11:59:28;1.80;;;1.30;;
72095;SDS011;59968;51.084;16.748;2023-09-19T12:01:57;2.00;;;1.30;;
72095;SDS011;59968;51.084;16.748;2023-09-19T12:04:37;2.20;;;1.30;;
72095;SDS011;59968;51.084;16.748;2023-09-19T12:07:12;2.10;;;1.60;;
72095;SDS011;59968;51.084;16.748;2023-09-19T12:09:48;2.80;;;1.00;;
72095;SDS011;59968;51.084;16.748;2023-09-19T12:12:20;2.20;;;1.20;;
72095;SDS011;59968;51.084;16.748;2023-09-19T12:14:50;2.70;;;1.20;;
72095;SDS011;59968;51.084;16.748;2023-09-19T12:17:17;2.00;;;1.40;;
72095;SDS011;59968;51.084;16.748;2023-09-19T12:19:51;1.50;;;1.30;;
72095;SDS011;59968;51.084;16.748;2023-09-19T12:22:20;2.50;;;1.60;;
72095;SDS011;59968;51.084;16.748;2023-09-19T12:24:47;1.90;;;1.50;;
72095;SDS011;59968;51.084;16.748;2023-09-19T12:27:15;2.80;;;1.50;;
72095;SDS011;59968;51.084;16.748;2023-09-19T12:29:46;2.20;;;1.40;;
72095;SDS011;59968;51.084;16.748;2023-09-19T12:32:16;2.40;;;1.30;;
72095;SDS011;59968;51.084;16.748;2023-09-19T12:34:50;3.20;;;1.50;;
72095;SDS011;59968;51.084;16.748;2023-09-19T12:37:19;3.00;;;1.60;;
72095;SDS011;59968;51.084;16.748;2023-09-19T12:39:51;2.20;;;1.40;;
72095;SDS011;59968;51.084;16.748;2023-09-19T12:42:24;2.20;;;1.30;;
72095;SDS011;59968;51.084;16.748;2023-09-19T12:44:56;1.60;;;1.20;;
72095;SDS011;59968;51.084;16.748;2023-09-19T12:47:24;3.30;;;1.50;;
72095;SDS011;59968;51.084;16.748;2023-09-19T12:50:07;3.00;;;1.50;;
72095;SDS011;59968;51.084;16.748;2023-09-19T12:55:21;2.20;;;1.60;;
72095;SDS011;59968;51.084;16.748;2023-09-19T13:00:34;2.60;;;1.40;;
72095;SDS011;59968;51.084;16.748;2023-09-19T13:03:18;2.00;;;1.40;;
72095;SDS011;59968;51.084;16.748;2023-09-19T13:06:04;3.60;;;1.70;;
72095;SDS011;59968;51.084;16.748;2023-09-19T13:08:32;2.20;;;1.10;;
72095;SDS011;59968;51.084;16.748;2023-09-19T13:11:11;2.20;;;1.40;;
72095;SDS011;59968;51.084;16.748;2023-09-19T13:16:22;1.70;;;1.00;;
72095;SDS011;59968;51.084;16.748;2023-09-19T13:18:52;1.80;;;1.40;;
72095;SDS011;59968;51.084;16.748;2023-09-19T13:21:31;1.40;;;1.20;;
72095;SDS011;59968;51.084;16.748;2023-09-19T13:24:23;1.80;;;1.40;;
72095;SDS011;59968;51.084;16.748;2023-09-19T13:26:55;2.10;;;1.30;;
72095;SDS011;59968;51.084;16.748;2023-09-19T13:29:22;2.70;;;1.40;;
72095;SDS011;59968;51.084;16.748;2023-09-19T13:31:51;1.80;;;1.50;;
72095;SDS011;59968;51.084;16.748;2023-09-19T13:34:20;2.40;;;1.70;;
72095;SDS011;59968;51.084;16.748;2023-09-19T13:36:48;3.10;;;1.20;;
72095;SDS011;59968;51.084;16.748;2023-09-19T13:39:18;3.30;;;1.40;;
72095;SDS011;59968;51.084;16.748;2023-09-19T13:41:49;1.80;;;1.10;;
72095;SDS011;59968;51.084;16.748;2023-09-19T13:44:16;2.70;;;1.80;;
72095;SDS011;59968;51.084;16.748;2023-09-19T13:46:45;2.30;;;1.50;;
72095;SDS011;59968;51.084;16.748;2023-09-19T13:49:12;2.40;;;1.20;;
72095;SDS011;59968;51.084;16.748;2023-09-19T13:51:40;2.00;;;1.00;;
72095;SDS011;59968;51.084;16.748;2023-09-19T13:54:13;2.00;;;1.50;;
72095;SDS011;59968;51.084;16.748;2023-09-19T13:56:41;2.30;;;1.20;;
72095;SDS011;59968;51.084;16.748;2023-09-19T13:59:12;2.40;;;1.40;;
72095;SDS011;59968;51.084;16.748;2023-09-19T14:01:40;1.80;;;1.20;;
72095;SDS011;59968;51.084;16.748;2023-09-19T14:04:07;1.70;;;1.30;;
72095;SDS011;59968;51.084;16.748;2023-09-19T14:06:34;1.30;;;1.10;;
72095;SDS011;59968;51.084;16.748;2023-09-19T14:09:01;2.90;;;1.30;;
72095;SDS011;59968;51.084;16.748;2023-09-19T14:11:31;3.80;;;1.90;;
72095;SDS011;59968;51.084;16.748;2023-09-19T14:13:58;2.20;;;1.30;;
72095;SDS011;59968;51.084;16.748;2023-09-19T14:16:25;2.50;;;1.60;;
72095;SDS011;59968;51.084;16.748;2023-09-19T14:18:57;2.30;;;1.40;;
72095;SDS011;59968;51.084;16.748;2023-09-19T14:21:24;2.70;;;1.60;;
72095;SDS011;59968;51.084;16.748;2023-09-19T14:23:54;1.80;;;1.40;;
72095;SDS011;59968;51.084;16.748;2023-09-19T14:26:23;1.40;;;1.30;;
72095;SDS011;59968;51.084;16.748;2023-09-19T14:28:50;1.90;;;1.30;;
72095;SDS011;59968;51.084;16.748;2023-09-19T14:31:19;2.40;;;1.40;;
72095;SDS011;59968;51.084;16.748;2023-09-19T14:33:53;1.60;;;1.30;;
72095;SDS011;59968;51.084;16.748;2023-09-19T14:36:24;2.20;;;1.30;;
72095;SDS011;59968;51.084;16.748;2023-09-19T14:38:53;2.00;;;1.30;;
72095;SDS011;59968;51.084;16.748;2023-09-19T14:41:21;2.10;;;1.30;;
72095;SDS011;59968;51.084;16.748;2023-09-19T14:43:49;1.80;;;1.40;;
72095;SDS011;59968;51.084;16.748;2023-09-19T14:46:17;2.10;;;1.50;;
72095;SDS011;59968;51.084;16.748;2023-09-19T14:48:46;1.60;;;1.30;;
72095;SDS011;59968;51.084;16.748;2023-09-19T14:51:15;1.80;;;1.00;;
72095;SDS011;59968;51.084;16.748;2023-09-19T14:53:43;1.70;;;1.40;;
72095;SDS011;59968;51.084;16.748;2023-09-19T14:56:11;1.60;;;1.20;;
72095;SDS011;59968;51.084;16.748;2023-09-19T14:58:40;3.60;;;1.60;;
72095;SDS011;59968;51.084;16.748;2023-09-19T15:01:09;2.00;;;1.40;;
72095;SDS011;59968;51.084;16.748;2023-09-19T15:03:38;2.70;;;1.40;;
72095;SDS011;59968;51.084;16.748;2023-09-19T15:06:09;3.60;;;1.50;;
72095;SDS011;59968;51.084;16.748;2023-09-19T15:08:41;2.70;;;1.20;;
72095;SDS011;59968;51.084;16.748;2023-09-19T15:11:14;1.50;;;1.30;;
72095;SDS011;59968;51.084;16.748;2023-09-19T15:13:47;2.80;;;1.40;;
72095;SDS011;59968;51.084;16.748;2023-09-19T15:16:17;2.40;;;1.40;;
72095;SDS011;59968;51.084;16.748;2023-09-19T15:18:45;3.40;;;1.90;;
72095;SDS011;59968;51.084;16.748;2023-09-19T15:21:16;2.60;;;1.80;;
72095;SDS011;59968;51.084;16.748;2023-09-19T15:23:45;2.90;;;1.50;;
72095;SDS011;59968;51.084;16.748;2023-09-19T15:26:13;1.60;;;1.40;;
72095;SDS011;59968;51.084;16.748;2023-09-19T15:28:47;1.40;;;1.20;;
72095;SDS011;59968;51.084;16.748;2023-09-19T15:31:15;2.00;;;1.10;;
72095;SDS011;59968;51.084;16.748;2023-09-19T15:33:42;2.20;;;1.30;;
72095;SDS011;59968;51.084;16.748;2023-09-19T15:36:10;2.30;;;1.60;;
72095;SDS011;59968;51.084;16.748;2023-09-19T15:41:36;2.50;;;1.60;;
72095;SDS011;59968;51.084;16.748;2023-09-19T15:44:13;3.00;;;1.30;;
72095;SDS011;59968;51.084;16.748;2023-09-19T15:46:42;2.30;;;1.50;;
72095;SDS011;59968;51.084;16.748;2023-09-19T15:49:11;1.50;;;1.20;;
72095;SDS011;59968;51.084;16.748;2023-09-19T15:51:40;2.80;;;1.60;;
72095;SDS011;59968;51.084;16.748;2023-09-19T15:54:12;3.30;;;1.60;;
72095;SDS011;59968;51.084;16.748;2023-09-19T15:56:44;3.30;;;1.50;;
72095;SDS011;59968;51.084;16.748;2023-09-19T15:59:12;2.90;;;1.20;;
72095;SDS011;59968;51.084;16.748;2023-09-19T16:01:41;2.30;;;1.60;;
72095;SDS011;59968;51.084;16.748;2023-09-19T16:04:11;2.70;;;1.40;;
72095;SDS011;59968;51.084;16.748;2023-09-19T16:06:40;2.10;;;1.60;;
72095;SDS011;59968;51.084;16.748;2023-09-19T16:09:08;3.90;;;1.80;;
72095;SDS011;59968;51.084;16.748;2023-09-19T16:11:36;2.10;;;1.30;;
72095;SDS011;59968;51.084;16.748;2023-09-19T16:14:04;2.60;;;1.60;;
72095;SDS011;59968;51.084;16.748;2023-09-19T16:16:33;2.70;;;1.50;;
72095;SDS011;59968;51.084;16.748;2023-09-19T16:19:02;2.90;;;1.30;;
72095;SDS011;59968;51.084;16.748;2023-09-19T16:21:32;3.40;;;1.20;;
72095;SDS011;59968;51.084;16.748;2023-09-19T16:24:02;2.10;;;1.40;;
72095;SDS011;59968;51.084;16.748;2023-09-19T16:26:31;2.90;;;1.70;;
72095;SDS011;59968;51.084;16.748;2023-09-19T16:28:59;3.50;;;1.80;;
72095;SDS011;59968;51.084;16.748;2023-09-19T16:31:29;2.70;;;1.70;;
72095;SDS011;59968;51.084;16.748;2023-09-19T16:34:02;2.90;;;1.50;;
72095;SDS011;59968;51.084;16.748;2023-09-19T16:36:29;2.00;;;1.20;;
72095;SDS011;59968;51.084;16.748;2023-09-19T16:38:59;2.90;;;1.40;;
72095;SDS011;59968;51.084;16.748;2023-09-19T16:41:26;2.20;;;1.30;;
72095;SDS011;59968;51.084;16.748;2023-09-19T16:43:53;3.10;;;1.20;;
72095;SDS011;59968;51.084;16.748;2023-09-19T16:46:20;3.90;;;1.40;;
72095;SDS011;59968;51.084;16.748;2023-09-19T16:48:48;1.90;;;1.30;;
72095;SDS011;59968;51.084;16.748;2023-09-19T16:51:21;3.20;;;1.50;;
72095;SDS011;59968;51.084;16.748;2023-09-19T16:53:48;3.20;;;1.60;;
72095;SDS011;59968;51.084;16.748;2023-09-19T16:56:16;3.40;;;1.50;;
72095;SDS011;59968;51.084;16.748;2023-09-19T16:58:46;2.10;;;1.70;;
72095;SDS011;59968;51.084;16.748;2023-09-19T17:01:14;2.90;;;1.60;;
72095;SDS011;59968;51.084;16.748;2023-09-19T17:03:43;3.10;;;1.90;;
72095;SDS011;59968;51.084;16.748;2023-09-19T17:06:11;2.50;;;1.70;;
72095;SDS011;59968;51.084;16.748;2023-09-19T17:08:42;3.30;;;1.80;;
72095;SDS011;59968;51.084;16.748;2023-09-19T17:11:12;2.80;;;1.80;;
72095;SDS011;59968;51.084;16.748;2023-09-19T17:13:43;4.50;;;2.30;;
72095;SDS011;59968;51.084;16.748;2023-09-19T17:16:14;3.70;;;1.60;;
72095;SDS011;59968;51.084;16.748;2023-09-19T17:18:55;3.70;;;1.80;;
72095;SDS011;59968;51.084;16.748;2023-09-19T17:21:24;2.70;;;1.60;;
72095;SDS011;59968;51.084;16.748;2023-09-19T17:23:54;2.30;;;1.50;;
72095;SDS011;59968;51.084;16.748;2023-09-19T17:26:22;2.50;;;1.40;;
72095;SDS011;59968;51.084;16.748;2023-09-19T17:28:52;2.80;;;1.70;;
72095;SDS011;59968;51.084;16.748;2023-09-19T17:31:22;3.00;;;1.90;;
72095;SDS011;59968;51.084;16.748;2023-09-19T17:33:52;3.10;;;1.80;;
72095;SDS011;59968;51.084;16.748;2023-09-19T17:36:25;4.10;;;1.90;;
72095;SDS011;59968;51.084;16.748;2023-09-19T17:39:00;3.90;;;1.70;;
72095;SDS011;59968;51.084;16.748;2023-09-19T17:41:28;3.40;;;1.70;;
72095;SDS011;59968;51.084;16.748;2023-09-19T17:43:56;3.60;;;2.10;;
72095;SDS011;59968;51.084;16.748;2023-09-19T17:46:25;5.60;;;1.90;;
72095;SDS011;59968;51.084;16.748;2023-09-19T17:48:58;3.90;;;1.80;;
72095;SDS011;59968;51.084;16.748;2023-09-19T17:51:26;2.70;;;1.80;;
72095;SDS011;59968;51.084;16.748;2023-09-19T17:53:53;5.50;;;1.90;;
72095;SDS011;59968;51.084;16.748;2023-09-19T17:56:26;3.70;;;2.70;;
72095;SDS011;59968;51.084;16.748;2023-09-19T17:58:55;4.70;;;2.00;;
72095;SDS011;59968;51.084;16.748;2023-09-19T18:01:25;3.90;;;2.00;;
72095;SDS011;59968;51.084;16.748;2023-09-19T18:03:55;3.80;;;1.90;;
72095;SDS011;59968;51.084;16.748;2023-09-19T18:06:26;4.00;;;2.20;;
72095;SDS011;59968;51.084;16.748;2023-09-19T18:08:55;5.50;;;2.30;;
72095;SDS011;59968;51.084;16.748;2023-09-19T18:11:24;3.30;;;1.80;;
72095;SDS011;59968;51.084;16.748;2023-09-19T18:13:55;2.40;;;1.70;;
72095;SDS011;59968;51.084;16.748;2023-09-19T18:16:25;3.00;;;1.70;;
72095;SDS011;59968;51.084;16.748;2023-09-19T18:19:01;3.50;;;1.90;;
72095;SDS011;59968;51.084;16.748;2023-09-19T18:21:32;3.50;;;2.50;;
72095;SDS011;59968;51.084;16.748;2023-09-19T18:24:00;3.80;;;2.00;;
72095;SDS011;59968;51.084;16.748;2023-09-19T18:26:32;5.10;;;2.20;;
72095;SDS011;59968;51.084;16.748;2023-09-19T18:29:00;4.30;;;2.20;;
72095;SDS011;59968;51.084;16.748;2023-09-19T18:31:28;4.20;;;2.00;;
72095;SDS011;59968;51.084;16.748;2023-09-19T18:33:57;5.70;;;2.10;;
72095;SDS011;59968;51.084;16.748;2023-09-19T18:36:26;3.30;;;1.90;;
72095;SDS011;59968;51.084;16.748;2023-09-19T18:38:55;3.60;;;2.10;;
72095;SDS011;59968;51.084;16.748;2023-09-19T18:41:24;3.90;;;1.90;;
72095;SDS011;59968;51.084;16.748;2023-09-19T18:43:52;3.80;;;1.90;;
72095;SDS011;59968;51.084;16.748;2023-09-19T18:46:20;4.30;;;2.60;;
72095;SDS011;59968;51.084;16.748;2023-09-19T18:48:51;5.40;;;2.50;;
72095;SDS011;59968;51.084;16.748;2023-09-19T18:51:19;5.70;;;2.50;;
72095;SDS011;59968;51.084;16.748;2023-09-19T18:53:49;5.30;;;2.70;;
72095;SDS011;59968;51.084;16.748;2023-09-19T18:56:32;5.00;;;3.00;;
72095;SDS011;59968;51.084;16.748;2023-09-19T18:59:02;6.30;;;2.50;;
72095;SDS011;59968;51.084;16.748;2023-09-19T19:01:30;4.80;;;2.40;;
72095;SDS011;59968;51.084;16.748;2023-09-19T19:03:59;4.40;;;2.40;;
72095;SDS011;59968;51.084;16.748;2023-09-19T19:06:28;5.10;;;2.70;;
72095;SDS011;59968;51.084;16.748;2023-09-19T19:08:58;4.30;;;2.60;;
72095;SDS011;59968;51.084;16.748;2023-09-19T19:11:26;5.10;;;2.80;;
72095;SDS011;59968;51.084;16.748;2023-09-19T19:13:57;7.00;;;2.70;;
72095;SDS011;59968;51.084;16.748;2023-09-19T19:16:26;6.30;;;2.80;;
72095;SDS011;59968;51.084;16.748;2023-09-19T19:18:56;4.60;;;2.70;;
72095;SDS011;59968;51.084;16.748;2023-09-19T19:21:23;5.30;;;2.70;;
72095;SDS011;59968;51.084;16.748;2023-09-19T19:23:51;7.10;;;3.10;;
72095;SDS011;59968;51.084;16.748;2023-09-19T19:26:22;6.90;;;3.10;;
72095;SDS011;59968;51.084;16.748;2023-09-19T19:28:51;6.20;;;3.50;;
72095;SDS011;59968;51.084;16.748;2023-09-19T19:31:20;5.40;;;2.90;;
72095;SDS011;59968;51.084;16.748;2023-09-19T19:33:50;6.50;;;3.60;;
72095;SDS011;59968;51.084;16.748;2023-09-19T19:36:24;6.70;;;3.50;;
72095;SDS011;59968;51.084;16.748;2023-09-19T19:38:53;6.50;;;3.20;;
72095;SDS011;59968;51.084;16.748;2023-09-19T19:41:23;6.30;;;3.40;;
72095;SDS011;59968;51.084;16.748;2023-09-19T19:43:51;6.90;;;3.80;;
72095;SDS011;59968;51.084;16.748;2023-09-19T19:46:19;6.80;;;3.70;;